Airfield :
LOGIN :

Register | Disclaimer

   EN    FR    IT 

 










Legend :    VFR   Marginal VFR   IFR   Intensive IFR   Very Intensive IFR
Visi :
Ceiling :
>= 8 km
>= 3000ft
5 to 8 km
1000 to 3000 ft
1500m to 5 km
500 to 1000 ft
800 to 1500m
200 to 500 ft
< 800m
< 200 ft
Symbols :   Thunderstorms  Fog  Heavy snow  Heavy precipitations  Wind > 20 kt
SIGMETs :     Misc.  Thunderstorms  Icing  Turbulence  Mountain Waves  Volcanic Ashes







- Airport Elevation : 0 ft


ENOA - Oseberg A Platform

CURRENT METAR :
  • 210420Z 10012KT 0100 -DZ FG VV002 08/08 Q1022 W///S3

EXPIRED METARs :
  • 210350Z 10010KT 0100 FG VV005 08/08 Q1022 W///S3
  • 210250Z 01003KT 350V060 1500 -RA BR FEW005 SCT025 BKN030 09/08 Q1024 W///S4
  • 210150Z 16001KT 8000 -RA FEW020 OVC056 08/08 Q1025 W///S/

COR TAF ENOA
Valid from the 21 at 03:00 until the 22 at 03:00 UTC


2103/2203 VRB07KT 9000 -RA FEW020 BKN050
TEMPO 2103/2107 RADZ BKN012
PROB30
TEMPO 2103/2108 1400 -DZRA BR BKN003
BECMG 2106/2108 16012KT
BECMG 2117/2119 18025KT
BECMG 2121/2123 17035KT
No reported NOTAMs for that airfield.



MET'MAP, your aeronautical weather chart ! - Copyright ORBIFLY December 2007 - Disclaimer

ORBIFLY MET'MAP TEAM :

Programming & Development : Alexandra Zaïnal
Concept & Development : Baudouin d'Aumeries
Co-Development & Prog : Marc-Olivier Méhu
Technical & hardware support : Manuel Goepfert

Contact : metmap@orbifly.com




SOURCES & CREDITS :

   NOAA